Detall de PIREP

Printer-friendly versionPDF version

[2008/12/07 14:12:00]
Flight IATA:CT0001
Pilot Number:041
Company ICAO:CAT
Aircraft Type:DC3/A
PAX:21
Departing Airport: LERI
Destination Airport: LELL
Alternate Airport:LEBL
Online: VATSIM
Route:NARGO G850 VLC B28 SOPET B28 LOTOS B28 EBROX B28 PEXOT B28 BARUS B28 BCN


Flight Level:FL080
No Slew and time accel
No pause
Crash detect
Detect pilot in Cockpit between each 30 and 45 minutes
14:12 Zero fuel Weight: 20811 Lbs, Fuel Weight: 4810 Lbs
14:12 VATSIM:LERI 071300Z 00000KT 9999 FEW030 19/07 Q1019 NOSIG
14:12 VATSIM:LELL 071330Z 00000KT 9999 SCT022 BKN035 12/07 Q1020
14:13 VOICE CATALONIAN
14:18 Parking Brakes off
14:23 Take-off
14:23 Take off Weight: 25591 Lbs
14:23 Wind: 217º @ 002 Knots Heading: 067º
14:23 POS N37º 57´ 15´´ W001º 13´ 32´´
14:23 Gear Up: 084 Knots
14:23 Flaps:1 at 84 Knots
14:24 Flaps:0 at 94 Knots
14:34 TOC
14:34 Fuel Weight: 4615 Lb
14
:38 Wind:254º@014 Knots Heading: 025º Ground Speed: 162 Knots Altitude 8274 ft
14:44 TOD
14:44 Fuel Weight: 4515 Lb
14:44 TOC
14:44 Fuel Weight: 4511 Lb
14:53 Wind:272º@016 Knots Heading: 015º Ground Speed: 157 Knots Altitude 8159 ft
14:57 TOD
14:57 Fuel Weight: 4384 Lb
14:58 TOC
14:58 Fuel Weight: 4374 Lb
14:58 TOD
14:58 Fuel Weight: 4374 Lb
14:58 TOC
14:58 Fuel Weight: 4370 Lb
14:59 TOD
14:59 Fuel Weight: 4368 Lb
14:59 TOC
14:59 Fuel Weight: 4359 Lb
15:03 TOD
15:03 Fuel Weight: 4321 Lb
15:04 TOC
15:04 Fuel Weight: 4312 Lb
15:07 TOD
15:07 Fuel Weight: 4287 Lb
15:07 TOC
15:07 Fuel Weight: 4280 Lb
15:08 Wind:272º@016 Knots Heading: 042º Ground Speed: 148 Knots Altitude 8047 ft
15:11 TOD
15:11 Fuel Weight: 4236 Lb
15:12 TOC
15:12 Fuel Weight: 4231 Lb
15:17 TOD
15:17 Fuel Weight: 4179 Lb
15:17 TOC
15:17 Fuel Weight: 4174 Lb
15:23 Wind:272º@016
Knots Heading: 039º Ground Speed: 195 Knots Altitude 8175 ft
15:25 TOD
15:25 Fuel Weight: 4090 Lb
15:25 TOC
15:25 Fuel Weight: 4086 Lb
15:25 TOD
15:25 Fuel Weight: 4085 Lb
15:27 TOC
15:27 Fuel Weight: 4062 Lb
15:38 Wind:196º@005 Knots Heading: 055º Ground Speed: 165 Knots Altitude 8221 ft
15:42 TOD
15:42 Fuel Weight: 3900 Lb
15:42 TOC
15:42 Fuel Weight: 3896 Lb
15:48 TOD
15:48 Fuel Weight: 3837 Lb
15:49 TOC
15:49 Fuel Weight: 3822 Lb
15:53 Wind:214º@008 Knots Heading: 043º Ground Speed: 171 Knots Altitude 8156 ft
15:54 TOD
15:54 Fuel Weight: 3769 Lb
16:08 Wind:138º@002 Knots Heading: 318º Ground Speed: 144 Knots Altitude 2414 ft
16:08 Flaps:1 at 143 Knots
16:08 Gear Down: 120 Knots
16:09 Flaps:2 at 105 Knots
16:12 TouchDown:Rate -505 ft/min Speed: 63 Knots
16:12 VATSIM:LELL 071600Z VRB02KT 9999 SCT020 BKN035 12/07 Q1020
16:12 Land
16:12 Wind:141º@00
2 Knots
16:12 Heading: 306º
16:12 Flight Duration: 01:49
16:12 Landing Weight: 24494 Lbs
16:12 POS N41º 31´ 21´´ E002º 06´ 06´´
16:14 Parking brakes on
16:14 Block to Block Duration: 01:56
16:14 Final Fuel: 3681 Lbls
16:14 Spent Fuel: 1128 Lbls
16:14 Flight Length: 282 NM
16:14 TOD Land Length: 40 NM

Exportar CSV

Powered by Drupal - Modified by Danger4k